Time,TemperatureF,DewpointF,PressureIn,WindDirection,WindDirectionDegrees,WindSpeedMPH,WindSpeedGustMPH,Humidity,HourlyPrecipIn,Conditions,Clouds,dailyrainin,SoftwareType,DateUTC
2013-01-07 00:08:00,38.0,31.0,30.38,NNE,28,3.0,-999.0,77,-99.99,,,0.01,weatherlink.com 1.10,2013-01-07 05:08:00,
2013-01-07 00:23:00,40.0,31.0,30.37,NNE,26,2.0,-999.0,71,-99.99,,,0.01,weatherlink.com 1.10,2013-01-07 05:23:00,
2013-01-07 00:38:00,40.2,31.0,30.38,NW,320,5.0,-999.0,69,-99.99,,,0.01,weatherlink.com 1.10,2013-01-07 05:38:00,
2013-01-07 00:53:00,41.0,31.0,30.37,NW,304,0.0,-999.0,68,-99.99,,,0.01,weatherlink.com 1.10,2013-01-07 05:53:00,
2013-01-07 01:08:00,40.6,31.0,30.37,West,269,3.0,-999.0,69,-99.99,,,0.01,weatherlink.com 1.10,2013-01-07 06:08:00,
2013-01-07 01:23:00,38.8,31.0,30.37,West,273,0.0,-999.0,73,-99.99,,,0.01,weatherlink.com 1.10,2013-01-07 06:23:00,
2013-01-07 01:38:00,37.5,30.0,30.38,NW,306,2.0,-999.0,75,-99.99,,,0.00,weatherlink.com 1.10,2013-01-07 06:38:00,
2013-01-07 01:53:00,37.5,30.0,30.39,NW,308,5.0,-999.0,73,-99.99,,,0.00,weatherlink.com 1.10,2013-01-07 06:53:00,
2013-01-07 02:09:00,39.5,29.0,30.39,NNE,13,0.0,-999.0,66,-99.99,,,0.00,weatherlink.com 1.10,2013-01-07 07:09:00,
2013-01-07 02:24:00,40.0,29.0,30.39,NW,311,5.0,-999.0,65,-99.99,,,0.00,weatherlink.com 1.10,2013-01-07 07:24:00,
2013-01-07 02:39:00,39.7,29.0,30.40,North,5,5.0,-999.0,65,-99.99,,,0.00,weatherlink.com 1.10,2013-01-07 07:39:00,
2013-01-07 02:54:00,39.4,28.0,30.41,North,5,3.0,-999.0,64,-99.99,,,0.00,weatherlink.com 1.10,2013-01-07 07:54:00,
2013-01-07 03:09:00,38.7,28.0,30.42,WNW,301,4.0,-999.0,65,-99.99,,,0.00,weatherlink.com 1.10,2013-01-07 08:09:00,
2013-01-07 03:24:00,37.6,27.0,30.42,NNW,336,2.0,-999.0,67,-99.99,,,0.00,weatherlink.com 1.10,2013-01-07 08:24:00,
2013-01-07 03:39:00,36.7,28.0,30.43,SSE,159,0.0,-999.0,71,-99.99,,,0.00,weatherlink.com 1.10,2013-01-07 08:39:00,
2013-01-07 03:54:00,35.5,27.0,30.43,North,5,0.0,-999.0,72,-99.99,,,0.00,weatherlink.com 1.10,2013-01-07 08:54:00,
2013-01-07 04:09:00,34.4,27.0,30.43,NNE,14,0.0,-999.0,75,-99.99,,,0.00,weatherlink.com 1.10,2013-01-07 09:09:00,
2013-01-07 04:24:00,33.2,27.0,30.43,NW,325,4.0,-999.0,78,-99.99,,,0.00,weatherlink.com 1.10,2013-01-07 09:24:00,
2013-01-07 04:39:00,32.8,27.0,30.44,NW,326,0.0,-999.0,78,-99.99,,,0.00,weatherlink.com 1.10,2013-01-07 09:39:00,
2013-01-07 04:54:00,32.3,27.0,30.44,NW,326,0.0,-999.0,80,-99.99,,,0.00,weatherlink.com 1.10,2013-01-07 09:54:00,
2013-01-07 05:09:00,31.1,26.0,30.45,NW,326,0.0,-999.0,82,-99.99,,,0.00,weatherlink.com 1.10,2013-01-07 10:09:00,
2013-01-07 05:24:00,30.8,27.0,30.45,NNE,17,1.0,-999.0,84,-99.99,,,0.00,weatherlink.com 1.10,2013-01-07 10:24:00,
2013-01-07 05:39:00,30.8,26.0,30.45,SE,140,0.0,-999.0,83,-99.99,,,0.00,weatherlink.com 1.10,2013-01-07 10:39:00,
2013-01-07 05:54:00,32.4,27.0,30.45,North,355,2.0,-999.0,79,-99.99,,,0.00,weatherlink.com 1.10,2013-01-07 10:54:00,
2013-01-07 06:09:00,34.1,27.0,30.46,NNW,341,8.0,-999.0,74,-99.99,,,0.00,weatherlink.com 1.10,2013-01-07 11:09:00,
2013-01-07 06:24:00,35.1,27.0,30.46,NNW,337,1.0,-999.0,72,-99.99,,,0.00,weatherlink.com 1.10,2013-01-07 11:24:00,
2013-01-07 06:39:00,33.4,26.0,30.47,NNW,334,4.0,-999.0,73,-99.99,,,0.00,weatherlink.com 1.10,2013-01-07 11:39:00,
2013-01-07 06:54:00,32.0,26.0,30.48,NNW,334,0.0,-999.0,77,-99.99,,,0.00,weatherlink.com 1.10,2013-01-07 11:54:00,
2013-01-07 07:09:00,30.8,25.0,30.48,NNW,334,0.0,-999.0,80,-99.99,,,0.00,weatherlink.com 1.10,2013-01-07 12:09:00,
2013-01-07 07:24:00,29.8,25.0,30.50,NNW,334,0.0,-999.0,82,-99.99,,,0.00,weatherlink.com 1.10,2013-01-07 12:24:00,
2013-01-07 07:39:00,28.9,24.0,30.52,NNW,334,0.0,-999.0,83,-99.99,,,0.00,weatherlink.com 1.10,2013-01-07 12:39:00,
2013-01-07 07:54:00,28.5,25.0,30.53,NNW,334,0.0,-999.0,85,-99.99,,,0.00,weatherlink.com 1.10,2013-01-07 12:54:00,
2013-01-07 08:10:00,27.9,25.0,30.54,NNW,334,0.0,-999.0,87,-99.99,,,0.00,weatherlink.com 1.10,2013-01-07 13:10:00,
2013-01-07 08:25:00,27.3,24.0,30.55,NNW,334,0.0,-999.0,87,-99.99,,,0.00,weatherlink.com 1.10,2013-01-07 13:25:00,
2013-01-07 08:40:00,27.4,25.0,30.56,NNW,334,0.0,-999.0,89,-99.99,,,0.00,weatherlink.com 1.10,2013-01-07 13:40:00,
2013-01-07 08:55:00,28.8,27.0,30.57,SSE,161,1.0,-999.0,91,-99.99,,,0.00,weatherlink.com 1.10,2013-01-07 13:55:00,
2013-01-07 09:10:00,31.3,28.0,30.57,NNW,336,0.0,-999.0,86,-99.99,,,0.00,weatherlink.com 1.10,2013-01-07 14:10:00,
2013-01-07 09:25:00,34.5,28.0,30.58,North,350,1.0,-999.0,76,-99.99,,,0.00,weatherlink.com 1.10,2013-01-07 14:25:00,
2013-01-07 09:40:00,37.3,28.0,30.60,NNE,13,3.0,-999.0,69,-99.99,,,0.00,weatherlink.com 1.10,2013-01-07 14:40:00,
2013-01-07 09:55:00,38.8,27.0,30.59,NE,39,2.0,-999.0,64,-99.99,,,0.00,weatherlink.com 1.10,2013-01-07 14:55:00,
2013-01-07 10:10:00,39.7,28.0,30.60,NNE,30,1.0,-999.0,64,-99.99,,,0.00,weatherlink.com 1.10,2013-01-07 15:10:00,
2013-01-07 10:25:00,40.6,28.0,30.60,ENE,78,0.0,-999.0,60,-99.99,,,0.00,weatherlink.com 1.10,2013-01-07 15:25:00,
2013-01-07 10:40:00,41.3,27.0,30.60,NNW,331,0.0,-999.0,58,-99.99,,,0.00,weatherlink.com 1.10,2013-01-07 15:40:00,
2013-01-07 10:55:00,42.2,28.0,30.60,NE,46,2.0,-999.0,57,-99.99,,,0.00,weatherlink.com 1.10,2013-01-07 15:55:00,
2013-01-07 11:10:00,42.9,28.0,30.60,NNW,329,0.0,-999.0,56,-99.99,,,0.00,weatherlink.com 1.10,2013-01-07 16:10:00,
2013-01-07 11:25:00,43.3,28.0,30.59,South,180,4.0,-999.0,55,-99.99,,,0.00,weatherlink.com 1.10,2013-01-07 16:25:00,
2013-01-07 11:40:00,43.6,28.0,30.58,NE,35,3.0,-999.0,54,-99.99,,,0.00,weatherlink.com 1.10,2013-01-07 16:40:00,
2013-01-07 11:55:00,44.5,29.0,30.56,NW,318,0.0,-999.0,54,-99.99,,,0.00,weatherlink.com 1.10,2013-01-07 16:55:00,
2013-01-07 12:11:00,45.6,29.0,30.55,SE,145,5.0,-999.0,53,-99.99,,,0.00,weatherlink.com 1.10,2013-01-07 17:11:00,
2013-01-07 12:26:00,45.7,28.0,30.54,South,169,2.0,-999.0,50,-99.99,,,0.00,weatherlink.com 1.10,2013-01-07 17:26:00,
2013-01-07 12:41:00,46.4,28.0,30.54,ENE,63,0.0,-999.0,50,-99.99,,,0.00,weatherlink.com 1.10,2013-01-07 17:41:00,
2013-01-07 12:56:00,47.6,28.0,30.54,SSE,155,5.0,-999.0,46,-99.99,,,0.00,weatherlink.com 1.10,2013-01-07 17:56:00,
2013-01-07 13:11:00,47.6,28.0,30.53,ENE,71,0.0,-999.0,46,-99.99,,,0.00,weatherlink.com 1.10,2013-01-07 18:11:00,
2013-01-07 13:26:00,48.2,29.0,30.53,NE,44,2.0,-999.0,48,-99.99,,,0.00,weatherlink.com 1.10,2013-01-07 18:26:00,
2013-01-07 13:41:00,48.7,29.0,30.54,NE,43,0.0,-999.0,47,-99.99,,,0.00,weatherlink.com 1.10,2013-01-07 18:41:00,
2013-01-07 13:56:00,49.4,30.0,30.54,SSE,153,6.0,-999.0,47,-99.99,,,0.00,weatherlink.com 1.10,2013-01-07 18:56:00,
2013-01-07 14:11:00,49.0,28.0,30.54,ENE,71,2.0,-999.0,45,-99.99,,,0.00,weatherlink.com 1.10,2013-01-07 19:11:00,
2013-01-07 14:26:00,49.3,29.0,30.54,SE,136,1.0,-999.0,45,-99.99,,,0.00,weatherlink.com 1.10,2013-01-07 19:26:00,
2013-01-07 14:41:00,49.5,28.0,30.54,SE,125,0.0,-999.0,44,-99.99,,,0.00,weatherlink.com 1.10,2013-01-07 19:41:00,
2013-01-07 14:56:00,49.8,27.0,30.54,SE,128,0.0,-999.0,42,-99.99,,,0.00,weatherlink.com 1.10,2013-01-07 19:56:00,
2013-01-07 15:11:00,49.9,29.0,30.55,SSE,158,2.0,-999.0,44,-99.99,,,0.00,weatherlink.com 1.10,2013-01-07 20:11:00,
2013-01-07 15:26:00,50.0,29.0,30.55,SSE,155,0.0,-999.0,44,-99.99,,,0.00,weatherlink.com 1.10,2013-01-07 20:26:00,
2013-01-07 15:56:00,49.5,30.0,30.55,SSE,161,4.0,-999.0,47,-99.99,,,0.00,weatherlink.com 1.10,2013-01-07 20:56:00,
2013-01-07 16:11:00,48.0,30.0,30.55,South,177,0.0,-999.0,50,-99.99,,,0.00,weatherlink.com 1.10,2013-01-07 21:11:00,
2013-01-07 16:26:00,46.6,29.0,30.55,South,171,0.0,-999.0,51,-99.99,,,0.00,weatherlink.com 1.10,2013-01-07 21:26:00,
2013-01-07 16:41:00,45.7,30.0,30.55,South,171,0.0,-999.0,54,-99.99,,,0.00,weatherlink.com 1.10,2013-01-07 21:41:00,
2013-01-07 16:56:00,44.5,30.0,30.55,South,171,0.0,-999.0,58,-99.99,,,0.00,weatherlink.com 1.10,2013-01-07 21:56:00,
2013-01-07 17:11:00,42.6,29.0,30.56,South,171,0.0,-999.0,60,-99.99,,,0.00,weatherlink.com 1.10,2013-01-07 22:11:00,
2013-01-07 17:26:00,40.5,29.0,30.56,South,171,0.0,-999.0,64,-99.99,,,0.00,weatherlink.com 1.10,2013-01-07 22:26:00,
2013-01-07 17:41:00,39.2,29.0,30.57,South,171,0.0,-999.0,68,-99.99,,,0.00,weatherlink.com 1.10,2013-01-07 22:41:00,
2013-01-07 17:56:00,37.9,29.0,30.57,South,171,0.0,-999.0,70,-99.99,,,0.00,weatherlink.com 1.10,2013-01-07 22:56:00,
2013-01-07 18:11:00,36.3,29.0,30.58,South,171,0.0,-999.0,74,-99.99,,,0.00,weatherlink.com 1.10,2013-01-07 23:11:00,
2013-01-07 18:26:00,35.0,28.0,30.59,South,171,0.0,-999.0,76,-99.99,,,0.00,weatherlink.com 1.10,2013-01-07 23:26:00,
2013-01-07 18:41:00,33.7,28.0,30.58,South,171,0.0,-999.0,78,-99.99,,,0.00,weatherlink.com 1.10,2013-01-07 23:41:00,
2013-01-07 18:56:00,32.7,27.0,30.59,South,171,0.0,-999.0,80,-99.99,,,0.00,weatherlink.com 1.10,2013-01-07 23:56:00,
2013-01-07 19:11:00,31.7,27.0,30.59,South,171,0.0,-999.0,82,-99.99,,,0.00,weatherlink.com 1.10,2013-01-08 00:11:00,
2013-01-07 19:26:00,31.0,26.0,30.59,South,171,0.0,-999.0,83,-99.99,,,0.00,weatherlink.com 1.10,2013-01-08 00:26:00,
2013-01-07 19:41:00,30.1,26.0,30.59,South,171,0.0,-999.0,84,-99.99,,,0.00,weatherlink.com 1.10,2013-01-08 00:41:00,
2013-01-07 19:56:00,29.6,26.0,30.59,South,171,0.0,-999.0,85,-99.99,,,0.00,weatherlink.com 1.10,2013-01-08 00:56:00,
2013-01-07 20:11:00,29.0,25.0,30.60,South,171,0.0,-999.0,86,-99.99,,,0.00,weatherlink.com 1.10,2013-01-08 01:11:00,
2013-01-07 20:26:00,28.6,25.0,30.59,South,171,0.0,-999.0,87,-99.99,,,0.00,weatherlink.com 1.10,2013-01-08 01:26:00,
2013-01-07 20:41:00,28.2,25.0,30.60,South,171,0.0,-999.0,88,-99.99,,,0.00,weatherlink.com 1.10,2013-01-08 01:41:00,
2013-01-07 20:56:00,27.9,25.0,30.59,South,171,0.0,-999.0,88,-99.99,,,0.00,weatherlink.com 1.10,2013-01-08 01:56:00,
2013-01-07 21:11:00,27.7,25.0,30.59,South,171,0.0,-999.0,88,-99.99,,,0.00,weatherlink.com 1.10,2013-01-08 02:11:00,
2013-01-07 21:26:00,27.4,24.0,30.59,South,171,0.0,-999.0,88,-99.99,,,0.00,weatherlink.com 1.10,2013-01-08 02:26:00,
2013-01-07 21:41:00,27.3,25.0,30.59,South,171,0.0,-999.0,89,-99.99,,,0.00,weatherlink.com 1.10,2013-01-08 02:41:00,
2013-01-07 21:56:00,27.1,24.0,30.58,South,171,0.0,-999.0,89,-99.99,,,0.00,weatherlink.com 1.10,2013-01-08 02:56:00,
2013-01-07 22:11:00,26.9,24.0,30.58,South,171,0.0,-999.0,89,-99.99,,,0.00,weatherlink.com 1.10,2013-01-08 03:11:00,
2013-01-07 22:26:00,26.7,24.0,30.58,South,171,0.0,-999.0,89,-99.99,,,0.00,weatherlink.com 1.10,2013-01-08 03:26:00,
2013-01-07 22:41:00,26.5,24.0,30.58,South,171,0.0,-999.0,89,-99.99,,,0.00,weatherlink.com 1.10,2013-01-08 03:41:00,
2013-01-07 22:56:00,26.3,24.0,30.59,South,171,0.0,-999.0,90,-99.99,,,0.00,weatherlink.com 1.10,2013-01-08 03:56:00,
2013-01-07 23:11:00,26.1,24.0,30.59,South,171,0.0,-999.0,90,-99.99,,,0.00,weatherlink.com 1.10,2013-01-08 04:11:00,
2013-01-07 23:26:00,25.9,23.0,30.59,South,171,0.0,-999.0,90,-99.99,,,0.00,weatherlink.com 1.10,2013-01-08 04:26:00,
2013-01-07 23:41:00,25.7,23.0,30.59,South,171,0.0,-999.0,90,-99.99,,,0.00,weatherlink.com 1.10,2013-01-08 04:41:00,
2013-01-07 23:56:00,25.5,23.0,30.59,South,171,0.0,-999.0,90,-99.99,,,0.00,weatherlink.com 1.10,2013-01-08 04:56:00,